sensor_id;sensor_type;location;lat;lon;timestamp;P1;durP1;ratioP1;P2;durP2;ratioP2
54023;SDS011;49584;38.820;-121.162;2022-09-13T00:00:50;74.60;;;58.92;;
54023;SDS011;49584;38.820;-121.162;2022-09-13T00:05:52;103.28;;;80.97;;
54023;SDS011;49584;38.820;-121.162;2022-09-13T00:10:54;114.13;;;90.32;;
54023;SDS011;49584;38.820;-121.162;2022-09-13T00:15:55;130.02;;;103.22;;
54023;SDS011;49584;38.820;-121.162;2022-09-13T00:21:07;128.27;;;102.32;;
54023;SDS011;49584;38.820;-121.162;2022-09-13T00:26:14;101.45;;;80.13;;
54023;SDS011;49584;38.820;-121.162;2022-09-13T00:31:18;91.50;;;72.82;;
54023;SDS011;49584;38.820;-121.162;2022-09-13T00:36:20;87.63;;;67.78;;
54023;SDS011;49584;38.820;-121.162;2022-09-13T00:41:21;75.20;;;57.78;;
54023;SDS011;49584;38.820;-121.162;2022-09-13T00:51:48;75.85;;;58.70;;
54023;SDS011;49584;38.820;-121.162;2022-09-13T00:56:55;74.10;;;58.97;;
54023;SDS011;49584;38.820;-121.162;2022-09-13T01:02:01;83.35;;;65.40;;
54023;SDS011;49584;38.820;-121.162;2022-09-13T01:07:05;84.35;;;64.30;;
54023;SDS011;49584;38.820;-121.162;2022-09-13T01:12:14;81.88;;;62.25;;
54023;SDS011;49584;38.820;-121.162;2022-09-13T01:17:35;79.50;;;61.35;;
54023;SDS011;49584;38.820;-121.162;2022-09-13T01:27:59;61.10;;;44.95;;
54023;SDS011;49584;38.820;-121.162;2022-09-13T01:39:04;70.78;;;38.53;;
54023;SDS011;49584;38.820;-121.162;2022-09-13T02:05:11;39.03;;;23.88;;
54023;SDS011;49584;38.820;-121.162;2022-09-13T02:10:34;42.78;;;23.83;;
54023;SDS011;49584;38.820;-121.162;2022-09-13T02:15:46;50.28;;;26.77;;
54023;SDS011;49584;38.820;-121.162;2022-09-13T02:20:51;53.20;;;25.00;;
54023;SDS011;49584;38.820;-121.162;2022-09-13T02:25:59;39.90;;;24.30;;
54023;SDS011;49584;38.820;-121.162;2022-09-13T02:31:07;37.83;;;23.07;;
54023;SDS011;49584;38.820;-121.162;2022-09-13T02:36:09;32.33;;;20.17;;
54023;SDS011;49584;38.820;-121.162;2022-09-13T03:02:42;32.30;;;15.73;;
54023;SDS011;49584;38.820;-121.162;2022-09-13T03:07:45;23.00;;;13.68;;
54023;SDS011;49584;38.820;-121.162;2022-09-13T03:34:10;18.23;;;8.13;;
54023;SDS011;49584;38.820;-121.162;2022-09-13T03:44:39;16.98;;;7.07;;
54023;SDS011;49584;38.820;-121.162;2022-09-13T03:49:45;17.30;;;7.13;;
54023;SDS011;49584;38.820;-121.162;2022-09-13T03:54:47;18.48;;;7.18;;
54023;SDS011;49584;38.820;-121.162;2022-09-13T04:04:51;19.25;;;6.65;;
54023;SDS011;49584;38.820;-121.162;2022-09-13T04:09:52;20.08;;;7.00;;
54023;SDS011;49584;38.820;-121.162;2022-09-13T04:14:53;13.70;;;5.75;;
54023;SDS011;49584;38.820;-121.162;2022-09-13T04:19:54;12.13;;;4.70;;
54023;SDS011;49584;38.820;-121.162;2022-09-13T04:24:55;13.10;;;4.78;;
54023;SDS011;49584;38.820;-121.162;2022-09-13T04:29:57;16.25;;;4.78;;
54023;SDS011;49584;38.820;-121.162;2022-09-13T04:34:58;11.50;;;4.40;;
54023;SDS011;49584;38.820;-121.162;2022-09-13T04:39:59;14.23;;;4.57;;
54023;SDS011;49584;38.820;-121.162;2022-09-13T04:45:01;11.38;;;4.30;;
54023;SDS011;49584;38.820;-121.162;2022-09-13T04:50:03;12.57;;;4.32;;
54023;SDS011;49584;38.820;-121.162;2022-09-13T04:55:06;13.50;;;4.40;;
54023;SDS011;49584;38.820;-121.162;2022-09-13T05:00:08;16.55;;;4.40;;
54023;SDS011;49584;38.820;-121.162;2022-09-13T05:05:09;13.15;;;4.10;;
54023;SDS011;49584;38.820;-121.162;2022-09-13T05:10:10;12.38;;;3.50;;
54023;SDS011;49584;38.820;-121.162;2022-09-13T05:15:12;9.63;;;3.58;;
54023;SDS011;49584;38.820;-121.162;2022-09-13T05:20:13;17.00;;;3.63;;
54023;SDS011;49584;38.820;-121.162;2022-09-13T05:25:15;13.18;;;3.58;;
54023;SDS011;49584;38.820;-121.162;2022-09-13T05:30:16;13.70;;;3.78;;
54023;SDS011;49584;38.820;-121.162;2022-09-13T05:35:17;14.27;;;3.95;;
54023;SDS011;49584;38.820;-121.162;2022-09-13T05:40:18;11.15;;;3.50;;
54023;SDS011;49584;38.820;-121.162;2022-09-13T05:45:19;10.13;;;3.40;;
54023;SDS011;49584;38.820;-121.162;2022-09-13T05:50:21;9.48;;;3.15;;
54023;SDS011;49584;38.820;-121.162;2022-09-13T05:55:22;17.42;;;3.90;;
54023;SDS011;49584;38.820;-121.162;2022-09-13T06:00:23;13.85;;;3.90;;
54023;SDS011;49584;38.820;-121.162;2022-09-13T06:05:24;12.00;;;3.75;;
54023;SDS011;49584;38.820;-121.162;2022-09-13T06:10:25;10.50;;;3.58;;
54023;SDS011;49584;38.820;-121.162;2022-09-13T06:15:27;13.57;;;3.63;;
54023;SDS011;49584;38.820;-121.162;2022-09-13T06:20:28;14.85;;;3.65;;
54023;SDS011;49584;38.820;-121.162;2022-09-13T06:25:30;10.68;;;3.85;;
54023;SDS011;49584;38.820;-121.162;2022-09-13T06:30:32;13.05;;;3.80;;
54023;SDS011;49584;38.820;-121.162;2022-09-13T06:35:33;16.23;;;3.65;;
54023;SDS011;49584;38.820;-121.162;2022-09-13T06:40:34;16.48;;;3.45;;
54023;SDS011;49584;38.820;-121.162;2022-09-13T06:45:35;11.65;;;3.55;;
54023;SDS011;49584;38.820;-121.162;2022-09-13T06:50:36;12.07;;;3.80;;
54023;SDS011;49584;38.820;-121.162;2022-09-13T06:55:37;15.50;;;4.18;;
54023;SDS011;49584;38.820;-121.162;2022-09-13T07:00:39;15.75;;;3.92;;
54023;SDS011;49584;38.820;-121.162;2022-09-13T07:05:40;14.82;;;4.20;;
54023;SDS011;49584;38.820;-121.162;2022-09-13T07:10:41;11.60;;;3.75;;
54023;SDS011;49584;38.820;-121.162;2022-09-13T07:15:42;12.27;;;4.00;;
54023;SDS011;49584;38.820;-121.162;2022-09-13T07:20:43;11.50;;;3.90;;
54023;SDS011;49584;38.820;-121.162;2022-09-13T07:25:52;17.83;;;3.97;;
54023;SDS011;49584;38.820;-121.162;2022-09-13T07:30:54;14.55;;;3.97;;
54023;SDS011;49584;38.820;-121.162;2022-09-13T07:35:57;17.45;;;4.28;;
54023;SDS011;49584;38.820;-121.162;2022-09-13T07:41:00;17.20;;;4.20;;
54023;SDS011;49584;38.820;-121.162;2022-09-13T07:46:03;13.02;;;4.22;;
54023;SDS011;49584;38.820;-121.162;2022-09-13T07:51:13;13.30;;;4.13;;
54023;SDS011;49584;38.820;-121.162;2022-09-13T07:56:18;13.73;;;4.00;;
54023;SDS011;49584;38.820;-121.162;2022-09-13T08:01:22;12.13;;;3.60;;
54023;SDS011;49584;38.820;-121.162;2022-09-13T08:06:29;11.80;;;3.95;;
54023;SDS011;49584;38.820;-121.162;2022-09-13T08:11:33;11.98;;;3.63;;
54023;SDS011;49584;38.820;-121.162;2022-09-13T08:16:40;13.18;;;3.92;;
54023;SDS011;49584;38.820;-121.162;2022-09-13T08:21:41;13.02;;;3.60;;
54023;SDS011;49584;38.820;-121.162;2022-09-13T08:26:45;15.43;;;4.03;;
54023;SDS011;49584;38.820;-121.162;2022-09-13T08:31:47;13.23;;;3.65;;
54023;SDS011;49584;38.820;-121.162;2022-09-13T08:36:48;15.95;;;4.20;;
54023;SDS011;49584;38.820;-121.162;2022-09-13T08:42:32;20.67;;;4.30;;
54023;SDS011;49584;38.820;-121.162;2022-09-13T08:52:39;16.85;;;4.22;;
54023;SDS011;49584;38.820;-121.162;2022-09-13T09:03:45;11.63;;;3.75;;
54023;SDS011;49584;38.820;-121.162;2022-09-13T09:08:51;14.07;;;4.20;;
54023;SDS011;49584;38.820;-121.162;2022-09-13T09:14:07;13.77;;;3.95;;
54023;SDS011;49584;38.820;-121.162;2022-09-13T09:19:43;16.10;;;3.95;;
54023;SDS011;49584;38.820;-121.162;2022-09-13T09:24:55;14.88;;;4.20;;
54023;SDS011;49584;38.820;-121.162;2022-09-13T09:29:57;16.75;;;4.65;;
54023;SDS011;49584;38.820;-121.162;2022-09-13T09:40:27;11.63;;;3.60;;
54023;SDS011;49584;38.820;-121.162;2022-09-13T09:45:30;11.52;;;3.97;;
54023;SDS011;49584;38.820;-121.162;2022-09-13T09:50:36;15.38;;;4.20;;
54023;SDS011;49584;38.820;-121.162;2022-09-13T09:55:51;13.35;;;4.25;;
54023;SDS011;49584;38.820;-121.162;2022-09-13T10:00:59;12.75;;;4.35;;
54023;SDS011;49584;38.820;-121.162;2022-09-13T10:06:04;17.45;;;4.15;;
54023;SDS011;49584;38.820;-121.162;2022-09-13T10:11:08;15.07;;;4.38;;
54023;SDS011;49584;38.820;-121.162;2022-09-13T10:16:24;13.57;;;4.43;;
54023;SDS011;49584;38.820;-121.162;2022-09-13T10:21:29;17.55;;;4.05;;
54023;SDS011;49584;38.820;-121.162;2022-09-13T10:26:31;16.52;;;4.05;;
54023;SDS011;49584;38.820;-121.162;2022-09-13T10:31:34;16.30;;;4.00;;
54023;SDS011;49584;38.820;-121.162;2022-09-13T10:36:41;15.10;;;4.00;;
54023;SDS011;49584;38.820;-121.162;2022-09-13T10:41:55;14.40;;;4.13;;
54023;SDS011;49584;38.820;-121.162;2022-09-13T10:47:28;17.67;;;4.30;;
54023;SDS011;49584;38.820;-121.162;2022-09-13T10:52:42;13.50;;;4.00;;
54023;SDS011;49584;38.820;-121.162;2022-09-13T11:03:19;16.88;;;4.30;;
54023;SDS011;49584;38.820;-121.162;2022-09-13T11:14:14;16.33;;;4.50;;
54023;SDS011;49584;38.820;-121.162;2022-09-13T11:25:13;13.85;;;4.35;;
54023;SDS011;49584;38.820;-121.162;2022-09-13T11:30:30;12.98;;;4.22;;
54023;SDS011;49584;38.820;-121.162;2022-09-13T11:40:55;10.65;;;3.92;;
54023;SDS011;49584;38.820;-121.162;2022-09-13T11:56:37;12.82;;;4.28;;
54023;SDS011;49584;38.820;-121.162;2022-09-13T12:01:48;13.68;;;4.15;;
54023;SDS011;49584;38.820;-121.162;2022-09-13T12:06:56;16.25;;;4.60;;
54023;SDS011;49584;38.820;-121.162;2022-09-13T12:12:06;14.67;;;4.20;;
54023;SDS011;49584;38.820;-121.162;2022-09-13T12:17:14;16.17;;;4.43;;
54023;SDS011;49584;38.820;-121.162;2022-09-13T12:22:22;13.38;;;4.07;;
54023;SDS011;49584;38.820;-121.162;2022-09-13T12:32:33;15.65;;;4.40;;
54023;SDS011;49584;38.820;-121.162;2022-09-13T12:42:56;14.75;;;4.43;;
54023;SDS011;49584;38.820;-121.162;2022-09-13T12:48:22;11.45;;;4.25;;
54023;SDS011;49584;38.820;-121.162;2022-09-13T12:53:55;13.63;;;4.03;;
54023;SDS011;49584;38.820;-121.162;2022-09-13T13:04:49;13.68;;;4.00;;
54023;SDS011;49584;38.820;-121.162;2022-09-13T13:09:56;15.82;;;4.10;;
54023;SDS011;49584;38.820;-121.162;2022-09-13T13:15:03;12.13;;;4.20;;
54023;SDS011;49584;38.820;-121.162;2022-09-13T13:20:40;11.63;;;3.58;;
54023;SDS011;49584;38.820;-121.162;2022-09-13T13:26:02;14.10;;;4.22;;
54023;SDS011;49584;38.820;-121.162;2022-09-13T13:31:07;14.00;;;4.18;;
54023;SDS011;49584;38.820;-121.162;2022-09-13T13:36:31;13.15;;;4.35;;
54023;SDS011;49584;38.820;-121.162;2022-09-13T14:02:45;13.90;;;3.63;;
54023;SDS011;49584;38.820;-121.162;2022-09-13T14:24:21;13.80;;;3.78;;
54023;SDS011;49584;38.820;-121.162;2022-09-13T14:29:26;10.40;;;3.60;;
54023;SDS011;49584;38.820;-121.162;2022-09-13T14:34:29;11.88;;;3.40;;
54023;SDS011;49584;38.820;-121.162;2022-09-13T14:39:32;14.45;;;3.70;;
54023;SDS011;49584;38.820;-121.162;2022-09-13T14:44:33;15.80;;;3.80;;
54023;SDS011;49584;38.820;-121.162;2022-09-13T14:49:35;13.35;;;4.00;;
54023;SDS011;49584;38.820;-121.162;2022-09-13T14:54:43;15.32;;;3.83;;
54023;SDS011;49584;38.820;-121.162;2022-09-13T14:59:51;10.73;;;3.60;;
54023;SDS011;49584;38.820;-121.162;2022-09-13T15:04:56;12.00;;;3.83;;
54023;SDS011;49584;38.820;-121.162;2022-09-13T15:10:19;12.70;;;3.67;;
54023;SDS011;49584;38.820;-121.162;2022-09-13T15:15:42;13.38;;;3.65;;
54023;SDS011;49584;38.820;-121.162;2022-09-13T15:31:00;13.43;;;3.53;;
54023;SDS011;49584;38.820;-121.162;2022-09-13T15:41:19;16.95;;;3.72;;
54023;SDS011;49584;38.820;-121.162;2022-09-13T15:46:21;16.52;;;3.72;;
54023;SDS011;49584;38.820;-121.162;2022-09-13T15:51:22;10.90;;;3.20;;
54023;SDS011;49584;38.820;-121.162;2022-09-13T15:56:28;14.32;;;3.60;;
54023;SDS011;49584;38.820;-121.162;2022-09-13T16:06:32;13.50;;;3.55;;
54023;SDS011;49584;38.820;-121.162;2022-09-13T16:11:34;13.20;;;3.47;;
54023;SDS011;49584;38.820;-121.162;2022-09-13T16:16:35;15.02;;;3.30;;
54023;SDS011;49584;38.820;-121.162;2022-09-13T16:21:36;10.43;;;3.20;;
54023;SDS011;49584;38.820;-121.162;2022-09-13T16:26:38;17.67;;;3.47;;
54023;SDS011;49584;38.820;-121.162;2022-09-13T16:31:39;12.45;;;3.97;;
54023;SDS011;49584;38.820;-121.162;2022-09-13T16:36:41;12.23;;;3.50;;
54023;SDS011;49584;38.820;-121.162;2022-09-13T16:41:42;14.00;;;3.53;;
54023;SDS011;49584;38.820;-121.162;2022-09-13T16:46:43;14.77;;;3.05;;
54023;SDS011;49584;38.820;-121.162;2022-09-13T16:51:44;12.70;;;3.10;;
54023;SDS011;49584;38.820;-121.162;2022-09-13T16:56:45;10.02;;;3.55;;
54023;SDS011;49584;38.820;-121.162;2022-09-13T17:01:47;11.57;;;3.28;;
54023;SDS011;49584;38.820;-121.162;2022-09-13T17:06:48;11.48;;;3.38;;
54023;SDS011;49584;38.820;-121.162;2022-09-13T17:11:50;11.38;;;3.47;;
54023;SDS011;49584;38.820;-121.162;2022-09-13T17:16:52;12.63;;;3.15;;
54023;SDS011;49584;38.820;-121.162;2022-09-13T17:21:54;7.22;;;2.97;;
54023;SDS011;49584;38.820;-121.162;2022-09-13T17:26:57;16.08;;;3.42;;
54023;SDS011;49584;38.820;-121.162;2022-09-13T17:31:59;10.63;;;3.20;;
54023;SDS011;49584;38.820;-121.162;2022-09-13T17:37:01;13.93;;;3.58;;
54023;SDS011;49584;38.820;-121.162;2022-09-13T17:42:03;12.02;;;3.35;;
54023;SDS011;49584;38.820;-121.162;2022-09-13T17:47:04;11.95;;;2.97;;
54023;SDS011;49584;38.820;-121.162;2022-09-13T17:52:06;10.15;;;3.17;;
54023;SDS011;49584;38.820;-121.162;2022-09-13T17:57:07;10.65;;;3.00;;
54023;SDS011;49584;38.820;-121.162;2022-09-13T18:02:11;12.68;;;3.03;;
54023;SDS011;49584;38.820;-121.162;2022-09-13T18:07:12;13.10;;;3.28;;
54023;SDS011;49584;38.820;-121.162;2022-09-13T18:12:13;10.52;;;3.00;;
54023;SDS011;49584;38.820;-121.162;2022-09-13T18:17:14;8.13;;;2.85;;
54023;SDS011;49584;38.820;-121.162;2022-09-13T18:22:15;10.10;;;2.65;;
54023;SDS011;49584;38.820;-121.162;2022-09-13T18:27:16;10.15;;;3.05;;
54023;SDS011;49584;38.820;-121.162;2022-09-13T18:32:18;8.50;;;3.08;;
54023;SDS011;49584;38.820;-121.162;2022-09-13T18:37:19;13.65;;;2.90;;
54023;SDS011;49584;38.820;-121.162;2022-09-13T18:42:20;8.57;;;2.70;;
54023;SDS011;49584;38.820;-121.162;2022-09-13T18:47:21;16.00;;;3.00;;
54023;SDS011;49584;38.820;-121.162;2022-09-13T18:52:22;8.90;;;2.70;;
54023;SDS011;49584;38.820;-121.162;2022-09-13T18:57:24;8.75;;;2.60;;
54023;SDS011;49584;38.820;-121.162;2022-09-13T19:02:25;10.60;;;2.65;;
54023;SDS011;49584;38.820;-121.162;2022-09-13T19:07:26;11.85;;;2.40;;
54023;SDS011;49584;38.820;-121.162;2022-09-13T19:12:27;10.27;;;2.95;;
54023;SDS011;49584;38.820;-121.162;2022-09-13T19:17:28;20.70;;;2.60;;
54023;SDS011;49584;38.820;-121.162;2022-09-13T19:22:30;17.55;;;2.40;;
54023;SDS011;49584;38.820;-121.162;2022-09-13T19:27:31;15.50;;;2.20;;
54023;SDS011;49584;38.820;-121.162;2022-09-13T19:32:32;12.90;;;2.40;;
54023;SDS011;49584;38.820;-121.162;2022-09-13T19:37:34;12.13;;;2.40;;
54023;SDS011;49584;38.820;-121.162;2022-09-13T19:42:35;12.07;;;2.50;;
54023;SDS011;49584;38.820;-121.162;2022-09-13T19:47:36;12.40;;;2.50;;
54023;SDS011;49584;38.820;-121.162;2022-09-13T19:52:37;8.70;;;2.28;;
54023;SDS011;49584;38.820;-121.162;2022-09-13T19:57:39;9.75;;;2.10;;
54023;SDS011;49584;38.820;-121.162;2022-09-13T20:02:40;10.35;;;2.20;;
54023;SDS011;49584;38.820;-121.162;2022-09-13T20:07:42;12.35;;;2.50;;
54023;SDS011;49584;38.820;-121.162;2022-09-13T20:12:44;11.80;;;2.00;;
54023;SDS011;49584;38.820;-121.162;2022-09-13T20:17:45;7.10;;;2.38;;
54023;SDS011;49584;38.820;-121.162;2022-09-13T20:22:46;7.38;;;3.08;;
54023;SDS011;49584;38.820;-121.162;2022-09-13T20:27:47;10.68;;;4.28;;
54023;SDS011;49584;38.820;-121.162;2022-09-13T20:32:51;15.93;;;5.35;;
54023;SDS011;49584;38.820;-121.162;2022-09-13T20:37:53;9.77;;;3.42;;
54023;SDS011;49584;38.820;-121.162;2022-09-13T20:42:55;10.82;;;3.30;;
54023;SDS011;49584;38.820;-121.162;2022-09-13T20:47:56;9.60;;;2.30;;
54023;SDS011;49584;38.820;-121.162;2022-09-13T20:52:57;11.93;;;2.28;;
54023;SDS011;49584;38.820;-121.162;2022-09-13T20:58:00;9.25;;;2.20;;
54023;SDS011;49584;38.820;-121.162;2022-09-13T21:03:01;12.05;;;2.17;;
54023;SDS011;49584;38.820;-121.162;2022-09-13T21:08:04;12.50;;;2.20;;
54023;SDS011;49584;38.820;-121.162;2022-09-13T21:13:23;11.27;;;1.55;;
54023;SDS011;49584;38.820;-121.162;2022-09-13T21:18:25;9.93;;;1.70;;
54023;SDS011;49584;38.820;-121.162;2022-09-13T21:23:35;7.25;;;1.80;;
54023;SDS011;49584;38.820;-121.162;2022-09-13T21:28:39;5.20;;;1.50;;
54023;SDS011;49584;38.820;-121.162;2022-09-13T21:33:44;9.70;;;1.85;;
54023;SDS011;49584;38.820;-121.162;2022-09-13T21:38:46;14.50;;;1.63;;
54023;SDS011;49584;38.820;-121.162;2022-09-13T21:43:48;6.25;;;1.50;;
54023;SDS011;49584;38.820;-121.162;2022-09-13T21:48:50;9.07;;;1.55;;
54023;SDS011;49584;38.820;-121.162;2022-09-13T21:53:55;9.05;;;1.38;;
54023;SDS011;49584;38.820;-121.162;2022-09-13T21:58:59;8.90;;;1.17;;
54023;SDS011;49584;38.820;-121.162;2022-09-13T22:04:02;7.88;;;1.30;;
54023;SDS011;49584;38.820;-121.162;2022-09-13T22:09:05;7.25;;;1.10;;
54023;SDS011;49584;38.820;-121.162;2022-09-13T22:14:08;6.63;;;1.17;;
54023;SDS011;49584;38.820;-121.162;2022-09-13T22:19:15;6.18;;;1.23;;
54023;SDS011;49584;38.820;-121.162;2022-09-13T22:24:20;9.60;;;1.30;;
54023;SDS011;49584;38.820;-121.162;2022-09-13T22:29:23;5.28;;;1.20;;
54023;SDS011;49584;38.820;-121.162;2022-09-13T22:34:25;8.25;;;1.30;;
54023;SDS011;49584;38.820;-121.162;2022-09-13T22:39:29;7.43;;;1.10;;
54023;SDS011;49584;38.820;-121.162;2022-09-13T22:44:31;6.85;;;1.00;;
54023;SDS011;49584;38.820;-121.162;2022-09-13T22:49:32;5.28;;;1.10;;
54023;SDS011;49584;38.820;-121.162;2022-09-13T22:54:33;6.38;;;1.00;;
54023;SDS011;49584;38.820;-121.162;2022-09-13T22:59:34;4.07;;;1.13;;
54023;SDS011;49584;38.820;-121.162;2022-09-13T23:04:36;7.25;;;1.00;;
54023;SDS011;49584;38.820;-121.162;2022-09-13T23:09:37;7.30;;;1.15;;
54023;SDS011;49584;38.820;-121.162;2022-09-13T23:14:38;4.38;;;0.88;;
54023;SDS011;49584;38.820;-121.162;2022-09-13T23:19:39;6.97;;;1.30;;
54023;SDS011;49584;38.820;-121.162;2022-09-13T23:24:40;7.22;;;1.10;;
54023;SDS011;49584;38.820;-121.162;2022-09-13T23:29:41;6.05;;;1.13;;
54023;SDS011;49584;38.820;-121.162;2022-09-13T23:34:43;8.02;;;1.20;;
54023;SDS011;49584;38.820;-121.162;2022-09-13T23:39:44;11.80;;;1.15;;
54023;SDS011;49584;38.820;-121.162;2022-09-13T23:44:45;8.32;;;1.10;;
54023;SDS011;49584;38.820;-121.162;2022-09-13T23:49:46;6.10;;;1.00;;
54023;SDS011;49584;38.820;-121.162;2022-09-13T23:54:48;8.68;;;1.20;;
54023;SDS011;49584;38.820;-121.162;2022-09-13T23:59:50;8.80;;;1.25;;
